createdAt,value
2019-06-07T00:00:36.654Z,0.00
2019-06-07T00:01:13.838Z,0.00
2019-06-07T00:02:13.287Z,0.00
2019-06-07T00:03:23.986Z,0.00
2019-06-07T00:04:14.157Z,0.00
2019-06-07T00:05:14.996Z,0.00
2019-06-07T00:06:19.604Z,0.00
2019-06-07T00:07:14.976Z,0.00
2019-06-07T00:08:21.319Z,0.00
2019-06-07T00:09:15.340Z,0.00
2019-06-07T00:10:36.050Z,0.00
2019-06-07T00:11:15.670Z,0.00
2019-06-07T00:12:14.917Z,0.00
2019-06-07T00:13:15.205Z,0.00
2019-06-07T00:14:15.820Z,0.00
2019-06-07T00:15:20.011Z,0.00
2019-06-07T00:16:14.957Z,0.00
2019-06-07T00:17:15.364Z,0.00
2019-06-07T00:18:15.085Z,0.00
2019-06-07T00:19:15.931Z,0.00
2019-06-07T00:20:15.597Z,0.00
2019-06-07T00:21:14.439Z,0.00
2019-06-07T00:22:18.343Z,0.00
2019-06-07T00:23:15.878Z,0.00
2019-06-07T00:24:15.900Z,0.00
2019-06-07T00:25:15.127Z,0.00
2019-06-07T00:26:14.005Z,0.00
2019-06-07T00:27:12.895Z,0.00
2019-06-07T00:28:13.269Z,0.00
2019-06-07T00:29:15.369Z,0.00
2019-06-07T00:30:35.927Z,0.00
2019-06-07T00:31:14.914Z,0.00
2019-06-07T00:32:14.403Z,0.00
2019-06-07T00:33:16.624Z,0.00
2019-06-07T00:34:13.950Z,0.00
2019-06-07T00:35:14.749Z,0.00
2019-06-07T00:36:14.685Z,0.00
2019-06-07T00:37:12.740Z,0.00
2019-06-07T00:38:12.052Z,0.00
2019-06-07T00:39:14.460Z,0.00
2019-06-07T00:40:17.966Z,0.00
2019-06-07T00:41:22.681Z,0.00
2019-06-07T00:42:16.646Z,0.00
2019-06-07T00:43:16.357Z,0.00
2019-06-07T00:44:12.506Z,0.00
2019-06-07T00:45:14.037Z,0.00
2019-06-07T00:46:15.730Z,5.62
2019-06-07T00:47:13.060Z,5.62
2019-06-07T00:48:21.283Z,5.62
2019-06-07T00:49:29.013Z,5.62
2019-06-07T00:50:13.759Z,5.62
2019-06-07T00:51:13.984Z,5.62
2019-06-07T00:53:07.040Z,5.62
2019-06-07T00:53:18.244Z,5.62
2019-06-07T00:54:15.013Z,5.62
2019-06-07T00:55:15.212Z,5.62
2019-06-07T00:56:11.867Z,5.62
2019-06-07T00:57:12.401Z,5.62
2019-06-07T00:58:13.577Z,5.62
2019-06-07T00:59:14.701Z,5.62
2019-06-07T01:00:14.760Z,5.62
2019-06-07T01:01:13.116Z,5.62
2019-06-07T01:02:14.645Z,5.62
2019-06-07T01:03:12.686Z,5.62
2019-06-07T01:04:13.131Z,5.62
2019-06-07T01:05:15.411Z,5.62
2019-06-07T01:06:12.799Z,11.25
2019-06-07T01:07:13.223Z,11.25
2019-06-07T01:08:14.379Z,11.25
2019-06-07T01:09:12.817Z,11.25
2019-06-07T01:10:13.663Z,11.25
2019-06-07T01:11:11.708Z,11.25
2019-06-07T01:12:24.594Z,11.25
2019-06-07T01:13:11.675Z,11.25
2019-06-07T01:14:11.643Z,11.25
2019-06-07T01:15:11.667Z,11.25
2019-06-07T01:16:11.645Z,11.25
2019-06-07T01:17:23.390Z,11.25
2019-06-07T01:18:36.143Z,11.25
2019-06-07T01:19:13.800Z,11.25
2019-06-07T01:20:11.604Z,11.25
2019-06-07T01:21:11.644Z,11.25
2019-06-07T01:22:11.571Z,11.25
2019-06-07T01:23:51.641Z,11.25
2019-06-07T01:24:12.786Z,11.25
2019-06-07T01:25:11.541Z,16.88
2019-06-07T01:26:11.579Z,16.88
2019-06-07T01:27:11.539Z,16.88
2019-06-07T01:28:11.502Z,16.88
2019-06-07T01:29:11.518Z,16.88
2019-06-07T01:30:11.481Z,16.88
2019-06-07T01:31:11.470Z,16.88
2019-06-07T01:32:11.472Z,16.88
2019-06-07T01:33:11.473Z,16.88
2019-06-07T01:34:11.457Z,16.88
2019-06-07T01:35:11.443Z,16.88
2019-06-07T01:36:11.646Z,16.88
2019-06-07T01:37:11.414Z,16.88
2019-06-07T01:38:11.400Z,16.88
2019-06-07T01:39:11.444Z,16.88
2019-06-07T01:40:11.397Z,16.88
2019-06-07T01:41:11.364Z,22.50
2019-06-07T01:42:11.353Z,22.50
2019-06-07T01:43:27.062Z,22.50
2019-06-07T01:44:12.390Z,22.50
2019-06-07T01:45:11.316Z,22.50
2019-06-07T01:46:11.308Z,22.50
2019-06-07T01:47:11.348Z,22.50
2019-06-07T01:48:11.289Z,22.50
2019-06-07T01:49:11.276Z,22.50
2019-06-07T01:50:11.300Z,22.50
2019-06-07T01:51:11.256Z,22.50
2019-06-07T01:52:11.257Z,22.50
2019-06-07T01:53:11.258Z,22.50
2019-06-07T01:54:49.380Z,22.50
2019-06-07T01:55:12.249Z,22.50
2019-06-07T01:56:11.209Z,28.12
2019-06-07T01:57:29.451Z,28.12
2019-06-07T01:58:12.200Z,28.12
2019-06-07T01:59:11.177Z,28.12
2019-06-07T02:00:11.168Z,28.12
2019-06-07T02:01:11.166Z,28.12
2019-06-07T02:02:11.161Z,28.12
2019-06-07T02:03:11.148Z,28.12
2019-06-07T02:04:11.106Z,28.12
2019-06-07T02:05:11.118Z,28.12
2019-06-07T02:06:11.138Z,28.12
2019-06-07T02:07:11.100Z,28.12
2019-06-07T02:08:11.088Z,28.12
2019-06-07T02:09:11.066Z,28.12
2019-06-07T02:10:11.059Z,28.12
2019-06-07T02:11:11.048Z,33.75
2019-06-07T02:12:25.718Z,33.75
2019-06-07T02:13:12.015Z,33.75
2019-06-07T02:14:25.313Z,33.75
2019-06-07T02:15:11.000Z,33.75
2019-06-07T02:16:11.006Z,33.75
2019-06-07T02:17:10.971Z,33.75
2019-06-07T02:18:10.983Z,33.75
2019-06-07T02:19:10.970Z,33.75
2019-06-07T02:20:10.957Z,33.75
2019-06-07T02:21:10.955Z,33.75
2019-06-07T02:22:10.935Z,33.75
2019-06-07T02:23:10.935Z,33.75
2019-06-07T02:24:10.921Z,33.75
2019-06-07T02:25:37.391Z,39.38
2019-06-07T02:26:11.880Z,39.38
2019-06-07T02:27:10.923Z,39.38
2019-06-07T02:28:27.218Z,39.38
2019-06-07T02:29:11.851Z,39.38
2019-06-07T02:30:36.899Z,39.38
2019-06-07T02:31:11.836Z,39.38
2019-06-07T02:32:10.813Z,39.38
2019-06-07T02:33:10.821Z,39.38
2019-06-07T02:34:10.852Z,39.38
2019-06-07T02:35:10.784Z,39.38
2019-06-07T02:36:10.794Z,39.38
2019-06-07T02:37:10.772Z,39.38
2019-06-07T02:38:10.784Z,39.38
2019-06-07T02:39:10.796Z,45.00
2019-06-07T02:40:10.743Z,45.00
2019-06-07T02:41:10.733Z,45.00
2019-06-07T02:42:10.701Z,45.00
2019-06-07T02:43:10.720Z,45.00
2019-06-07T02:44:10.704Z,45.00
2019-06-07T02:45:24.215Z,45.00
2019-06-07T02:46:25.419Z,45.00
2019-06-07T02:47:11.652Z,45.00
2019-06-07T02:48:10.655Z,50.62
2019-06-07T02:49:10.644Z,50.62
2019-06-07T02:50:10.660Z,50.62
2019-06-07T02:51:10.624Z,50.62
2019-06-07T02:52:10.624Z,50.62
2019-06-07T02:53:10.602Z,50.62
2019-06-07T02:54:10.604Z,50.62
2019-06-07T02:55:10.621Z,50.62
2019-06-07T02:57:11.576Z,50.62
2019-06-07T02:58:10.546Z,50.62
2019-06-07T02:59:10.540Z,56.25
2019-06-07T03:00:40.653Z,56.25
2019-06-07T03:01:11.520Z,56.25
2019-06-07T03:02:10.502Z,56.25
2019-06-07T03:03:10.497Z,56.25
2019-06-07T03:04:10.513Z,56.25
2019-06-07T03:05:10.477Z,56.25
2019-06-07T03:06:10.451Z,56.25
2019-06-07T03:07:10.493Z,56.25
2019-06-07T03:08:10.431Z,56.25
2019-06-07T03:09:10.410Z,56.25
2019-06-07T03:10:10.542Z,61.88
2019-06-07T03:11:10.400Z,61.88
2019-06-07T03:12:10.391Z,61.88
2019-06-07T03:13:10.400Z,61.88
2019-06-07T03:14:10.372Z,61.88
2019-06-07T03:15:10.361Z,61.88
2019-06-07T03:16:22.649Z,61.88
2019-06-07T03:17:10.328Z,61.88
2019-06-07T03:18:10.320Z,61.88
2019-06-07T03:19:10.317Z,61.88
2019-06-07T03:20:10.297Z,61.88
2019-06-07T03:21:10.289Z,61.88
2019-06-07T03:22:10.286Z,61.88
2019-06-07T03:23:10.288Z,61.88
2019-06-07T03:24:10.259Z,67.50
2019-06-07T03:25:10.250Z,67.50
2019-06-07T03:26:10.270Z,67.50
2019-06-07T03:27:34.071Z,67.50
2019-06-07T03:28:11.263Z,67.50
2019-06-07T03:29:10.204Z,67.50
2019-06-07T03:30:36.060Z,67.50
2019-06-07T03:31:11.206Z,67.50
2019-06-07T03:32:10.181Z,67.50
2019-06-07T03:33:10.216Z,67.50
2019-06-07T03:34:10.162Z,67.50
2019-06-07T03:35:10.138Z,67.50
2019-06-07T03:36:23.288Z,67.50
2019-06-07T03:37:11.139Z,67.50
2019-06-07T03:38:10.106Z,67.50
2019-06-07T03:39:10.140Z,67.50
2019-06-07T03:40:10.088Z,67.50
2019-06-07T03:41:10.089Z,67.50
2019-06-07T03:42:10.082Z,67.50
2019-06-07T03:43:10.055Z,67.50
2019-06-07T03:44:10.046Z,67.50
2019-06-07T03:45:10.043Z,67.50
2019-06-07T03:46:10.027Z,67.50
2019-06-07T03:47:19.893Z,67.50
2019-06-07T03:48:10.016Z,67.50
2019-06-07T03:49:10.025Z,67.50
2019-06-07T03:50:09.995Z,73.12
2019-06-07T03:51:24.055Z,73.12
2019-06-07T03:52:10.953Z,73.12
2019-06-07T03:53:09.943Z,73.12
2019-06-07T03:54:09.943Z,73.12
2019-06-07T03:55:09.966Z,73.12
2019-06-07T03:56:10.246Z,73.12
2019-06-07T03:57:09.911Z,73.12
2019-06-07T03:59:10.900Z,73.12
2019-06-07T04:00:09.884Z,73.12
2019-06-07T04:01:09.861Z,78.75
2019-06-07T04:02:09.893Z,78.75
2019-06-07T04:03:09.842Z,78.75
2019-06-07T04:04:09.827Z,78.75
2019-06-07T04:05:09.812Z,78.75
2019-06-07T04:06:09.818Z,78.75
2019-06-07T04:07:09.806Z,78.75
2019-06-07T04:08:09.822Z,78.75
2019-06-07T04:09:09.795Z,78.75
2019-06-07T04:10:09.779Z,78.75
2019-06-07T04:11:09.747Z,78.75
2019-06-07T04:12:09.748Z,78.75
2019-06-07T04:13:09.743Z,78.75
2019-06-07T04:14:09.723Z,84.38
2019-06-07T04:15:09.717Z,84.38
2019-06-07T04:16:09.724Z,84.38
2019-06-07T04:17:09.678Z,84.38
2019-06-07T04:18:21.539Z,84.38
2019-06-07T04:19:09.655Z,84.38
2019-06-07T04:20:09.675Z,84.38
2019-06-07T04:21:09.647Z,84.38
2019-06-07T04:22:09.682Z,84.38
2019-06-07T04:23:27.347Z,84.38
2019-06-07T04:24:10.615Z,84.38
2019-06-07T04:25:09.598Z,90.00
2019-06-07T04:26:09.590Z,90.00
2019-06-07T04:27:09.597Z,90.00
2019-06-07T04:28:09.589Z,90.00
2019-06-07T04:29:32.320Z,90.00
2019-06-07T04:30:10.536Z,90.00
2019-06-07T04:31:09.576Z,90.00
2019-06-07T04:32:09.518Z,90.00
2019-06-07T04:33:09.517Z,90.00
2019-06-07T04:34:09.507Z,101.25
2019-06-07T04:35:09.529Z,95.62
2019-06-07T04:36:09.497Z,95.62
2019-06-07T04:37:09.466Z,95.62
2019-06-07T04:38:09.446Z,95.62
2019-06-07T04:39:09.436Z,95.62
2019-06-07T04:40:09.441Z,95.62
2019-06-07T04:41:09.457Z,95.62
2019-06-07T04:42:09.426Z,95.62
2019-06-07T04:43:09.427Z,95.62
2019-06-07T04:44:09.386Z,95.62
2019-06-07T04:45:32.506Z,101.25
2019-06-07T04:46:10.378Z,101.25
2019-06-07T04:47:09.374Z,101.25
2019-06-07T04:48:09.364Z,101.25
2019-06-07T04:49:20.996Z,101.25
2019-06-07T04:50:09.348Z,101.25
2019-06-07T04:51:09.397Z,101.25
2019-06-07T04:52:09.305Z,101.25
2019-06-07T04:53:09.306Z,101.25
2019-06-07T04:54:09.295Z,101.25
2019-06-07T04:55:09.270Z,101.25
2019-06-07T04:56:09.267Z,101.25
2019-06-07T04:57:09.265Z,101.25
2019-06-07T04:58:09.276Z,101.25
2019-06-07T04:59:09.233Z,101.25
2019-06-07T05:00:46.197Z,101.25
2019-06-07T05:01:26.388Z,106.88
2019-06-07T05:02:10.247Z,106.88
2019-06-07T05:03:09.215Z,106.88
2019-06-07T05:04:09.194Z,106.88
2019-06-07T05:05:09.187Z,106.88
2019-06-07T05:06:09.179Z,106.88
2019-06-07T05:07:09.198Z,106.88
2019-06-07T05:08:26.974Z,106.88
2019-06-07T05:09:10.147Z,106.88
2019-06-07T05:10:09.136Z,106.88
2019-06-07T05:11:09.103Z,112.50
2019-06-07T05:12:09.093Z,112.50
2019-06-07T05:13:09.086Z,112.50
2019-06-07T05:14:09.084Z,112.50
2019-06-07T05:15:09.062Z,112.50
2019-06-07T05:16:09.066Z,112.50
2019-06-07T05:17:09.069Z,112.50
2019-06-07T05:18:09.060Z,112.50
2019-06-07T05:19:09.047Z,112.50
2019-06-07T05:20:19.344Z,112.50
2019-06-07T05:21:09.005Z,112.50
2019-06-07T05:22:08.987Z,112.50
2019-06-07T05:23:08.977Z,112.50
2019-06-07T05:24:10.523Z,112.50
2019-06-07T05:25:08.973Z,118.12
2019-06-07T05:26:08.974Z,118.12
2019-06-07T05:27:08.947Z,118.12
2019-06-07T05:28:08.914Z,118.12
2019-06-07T05:29:08.914Z,118.12
2019-06-07T05:30:36.112Z,118.12
2019-06-07T05:31:09.892Z,118.12
2019-06-07T05:32:08.883Z,118.12
2019-06-07T05:33:08.877Z,118.12
2019-06-07T05:34:08.862Z,118.12
2019-06-07T05:35:08.924Z,118.12
2019-06-07T05:36:08.836Z,118.12
2019-06-07T05:37:11.972Z,118.12
2019-06-07T05:38:08.826Z,118.12
2019-06-07T05:39:08.849Z,118.12
2019-06-07T05:40:08.809Z,118.12
2019-06-07T05:41:08.803Z,118.12
2019-06-07T05:42:08.778Z,123.75
2019-06-07T05:43:08.766Z,123.75
2019-06-07T05:44:12.716Z,123.75
2019-06-07T05:45:08.767Z,123.75
2019-06-07T05:46:08.731Z,123.75
2019-06-07T05:47:08.733Z,123.75
2019-06-07T05:48:08.768Z,123.75
2019-06-07T05:49:08.703Z,123.75
2019-06-07T05:50:38.022Z,123.75
2019-06-07T05:51:18.781Z,123.75
2019-06-07T05:52:08.704Z,123.75
2019-06-07T05:53:08.653Z,123.75
2019-06-07T05:54:08.642Z,123.75
2019-06-07T05:55:08.644Z,123.75
2019-06-07T05:56:08.888Z,123.75
2019-06-07T05:57:08.601Z,118.12
2019-06-07T05:58:08.601Z,123.75
2019-06-07T05:59:08.592Z,123.75
2019-06-07T06:00:08.584Z,123.75
2019-06-07T06:01:42.374Z,123.75
2019-06-07T06:02:22.309Z,123.75
2019-06-07T06:03:09.609Z,123.75
2019-06-07T06:04:08.559Z,123.75
2019-06-07T06:05:08.540Z,123.75
2019-06-07T06:06:08.525Z,123.75
2019-06-07T06:07:08.521Z,123.75
2019-06-07T06:08:08.535Z,123.75
2019-06-07T06:09:13.821Z,123.75
2019-06-07T06:10:09.469Z,123.75
2019-06-07T06:11:08.473Z,123.75
2019-06-07T06:12:08.456Z,123.75
2019-06-07T06:13:08.453Z,123.75
2019-06-07T06:14:08.651Z,123.75
2019-06-07T06:15:08.443Z,123.75
2019-06-07T06:16:08.403Z,129.38
2019-06-07T06:17:08.415Z,129.38
2019-06-07T06:18:08.393Z,129.38
2019-06-07T06:19:08.381Z,129.38
2019-06-07T06:21:18.071Z,129.38
2019-06-07T06:23:23.326Z,0.00
2019-06-07T06:24:23.343Z,0.00
2019-06-07T06:25:33.151Z,0.00
2019-06-07T06:26:24.335Z,0.00
2019-06-07T06:28:02.573Z,0.00
2019-06-07T06:28:24.277Z,0.00
2019-06-07T06:29:23.267Z,0.00
2019-06-07T06:30:23.274Z,0.00
2019-06-07T06:31:23.248Z,0.00
2019-06-07T06:32:41.955Z,0.00
2019-06-07T06:33:33.769Z,0.00
2019-06-07T06:34:24.217Z,0.00
2019-06-07T06:35:23.200Z,0.00
2019-06-07T06:36:23.313Z,0.00
2019-06-07T06:37:23.201Z,0.00
2019-06-07T06:38:23.171Z,0.00
2019-06-07T06:39:23.157Z,0.00
2019-06-07T06:40:23.169Z,0.00
2019-06-07T06:41:23.153Z,0.00
2019-06-07T06:42:23.137Z,0.00
2019-06-07T06:43:23.116Z,0.00
2019-06-07T06:44:23.130Z,0.00
2019-06-07T06:45:23.101Z,0.00
2019-06-07T06:46:38.310Z,0.00
2019-06-07T06:47:24.091Z,0.00
2019-06-07T06:48:23.105Z,0.00
2019-06-07T06:49:23.079Z,0.00
2019-06-07T06:50:23.083Z,0.00
2019-06-07T06:51:23.047Z,0.00
2019-06-07T06:52:23.093Z,0.00
2019-06-07T06:54:46.630Z,140.62
2019-06-07T06:55:43.968Z,140.62
2019-06-07T06:56:45.140Z,140.62
2019-06-07T06:57:43.411Z,140.62
2019-06-07T06:59:21.977Z,140.62
2019-06-07T06:59:45.088Z,140.62
2019-06-07T07:00:50.324Z,140.62
2019-06-07T07:01:44.900Z,140.62
2019-06-07T07:03:35.066Z,140.62
2019-06-07T07:04:03.577Z,140.62
2019-06-07T07:04:44.003Z,140.62
2019-06-07T07:05:43.433Z,140.62
2019-06-07T07:06:42.744Z,140.62
2019-06-07T07:07:42.685Z,140.62
2019-06-07T07:08:43.653Z,146.25
2019-06-07T07:09:45.573Z,146.25
2019-06-07T07:10:43.256Z,146.25
2019-06-07T07:11:59.282Z,146.25
2019-06-07T07:12:43.116Z,140.62
2019-06-07T07:13:44.479Z,146.25
2019-06-07T07:14:45.579Z,146.25
2019-06-07T07:15:43.308Z,146.25
2019-06-07T07:16:42.871Z,146.25
2019-06-07T07:17:53.837Z,146.25
2019-06-07T07:18:44.274Z,146.25
2019-06-07T07:19:42.585Z,146.25
2019-06-07T07:20:43.611Z,146.25
2019-06-07T07:21:42.082Z,146.25
2019-06-07T07:22:42.763Z,146.25
2019-06-07T07:24:08.246Z,146.25
2019-06-07T07:25:59.303Z,157.50
2019-06-07T07:26:58.311Z,151.88
2019-06-07T07:27:55.403Z,151.88
2019-06-07T07:28:57.629Z,151.88
2019-06-07T07:30:34.383Z,151.88
2019-06-07T07:30:57.164Z,157.50
2019-06-07T07:31:56.479Z,157.50
2019-06-07T07:32:59.330Z,157.50
2019-06-07T07:35:00.241Z,157.50
2019-06-07T07:37:59.652Z,157.50
2019-06-07T07:40:01.716Z,157.50
2019-06-07T07:42:18.097Z,157.50
2019-06-07T07:44:05.269Z,163.12
2019-06-07T07:45:59.161Z,163.12
2019-06-07T07:48:08.266Z,163.12
2019-06-07T07:49:58.108Z,163.12
2019-06-07T07:51:00.073Z,163.12
2019-06-07T07:53:00.007Z,163.12
2019-06-07T07:54:57.793Z,163.12
2019-06-07T07:56:01.491Z,163.12
2019-06-07T07:56:56.150Z,163.12
2019-06-07T07:58:00.994Z,163.12
2019-06-07T08:00:13.237Z,163.12
2019-06-07T08:01:56.005Z,163.12
2019-06-07T08:02:58.638Z,168.75
2019-06-07T08:03:56.552Z,163.12
2019-06-07T08:05:20.202Z,163.12
2019-06-07T08:06:55.987Z,168.75
2019-06-07T08:07:59.795Z,163.12
2019-06-07T08:09:59.502Z,163.12
2019-06-07T08:11:59.950Z,163.12
2019-06-07T08:13:57.235Z,90.00
2019-06-07T08:14:58.619Z,101.25
2019-06-07T08:16:56.446Z,168.75
2019-06-07T08:17:58.105Z,163.12
2019-06-07T08:19:55.052Z,180.00
2019-06-07T08:21:17.218Z,180.00
2019-06-07T08:22:57.793Z,180.00
2019-06-07T08:24:55.997Z,174.38
2019-06-07T08:27:24.614Z,168.75
2019-06-07T08:27:56.869Z,180.00
2019-06-07T08:28:58.436Z,174.38
2019-06-07T08:30:15.647Z,180.00
2019-06-07T08:31:02.310Z,185.62
2019-06-07T08:31:57.608Z,180.00
2019-06-07T08:32:58.783Z,180.00
2019-06-07T08:33:58.062Z,174.38
2019-06-07T08:34:59.819Z,174.38
2019-06-07T08:36:10.382Z,180.00
2019-06-07T08:36:58.397Z,180.00
2019-06-07T08:38:21.514Z,180.00
2019-06-07T08:39:00.528Z,180.00
2019-06-07T08:39:57.557Z,180.00
2019-06-07T08:41:00.783Z,180.00
2019-06-07T08:42:14.359Z,180.00
2019-06-07T08:43:15.240Z,180.00
2019-06-07T08:44:57.113Z,185.62
2019-06-07T08:47:10.252Z,185.62
2019-06-07T08:48:55.975Z,185.62
2019-06-07T08:50:55.338Z,185.62
2019-06-07T08:51:57.736Z,185.62
2019-06-07T08:54:15.967Z,185.62
2019-06-07T08:54:57.020Z,185.62
2019-06-07T08:55:58.757Z,185.62
2019-06-07T08:57:06.648Z,180.00
2019-06-07T08:58:08.409Z,185.62
2019-06-07T08:58:56.917Z,191.25
2019-06-07T08:59:56.548Z,185.62
2019-06-07T09:00:58.079Z,185.62
2019-06-07T09:01:57.815Z,185.62
2019-06-07T09:02:55.652Z,185.62
2019-06-07T09:03:59.831Z,191.25
2019-06-07T09:04:57.022Z,185.62
2019-06-07T09:05:57.190Z,191.25
2019-06-07T09:07:07.280Z,191.25
2019-06-07T09:08:22.265Z,191.25
2019-06-07T09:08:56.111Z,191.25
2019-06-07T09:09:58.519Z,191.25
2019-06-07T09:10:56.487Z,191.25
2019-06-07T09:11:54.704Z,196.88
2019-06-07T09:12:59.185Z,196.88
2019-06-07T09:13:57.225Z,196.88
2019-06-07T09:15:09.356Z,196.88
2019-06-07T09:15:56.045Z,196.88
2019-06-07T09:16:55.366Z,196.88
2019-06-07T09:18:35.030Z,196.88
2019-06-07T09:18:56.073Z,196.88
2019-06-07T09:19:54.148Z,196.88
2019-06-07T09:20:53.698Z,196.88
2019-06-07T09:21:54.595Z,191.25
2019-06-07T09:22:59.023Z,191.25
2019-06-07T09:23:54.693Z,191.25
2019-06-07T09:24:59.172Z,191.25
2019-06-07T09:26:02.072Z,196.88
2019-06-07T09:26:55.847Z,196.88
2019-06-07T09:27:53.393Z,196.88
2019-06-07T09:29:53.369Z,196.88
2019-06-07T09:30:53.359Z,196.88
2019-06-07T09:31:53.958Z,196.88
2019-06-07T09:32:53.342Z,196.88
2019-06-07T09:33:53.342Z,196.88
2019-06-07T09:34:53.323Z,196.88
2019-06-07T09:35:53.301Z,196.88
2019-06-07T09:36:53.299Z,196.88
2019-06-07T09:38:07.699Z,196.88
2019-06-07T09:38:54.279Z,196.88
2019-06-07T09:39:53.270Z,196.88
2019-06-07T09:40:53.262Z,196.88
2019-06-07T09:41:53.253Z,196.88
2019-06-07T09:43:38.201Z,202.50
2019-06-07T09:44:05.483Z,202.50
2019-06-07T09:44:54.241Z,202.50
2019-06-07T09:45:53.216Z,208.12
2019-06-07T09:47:14.108Z,202.50
2019-06-07T09:47:54.221Z,202.50
2019-06-07T09:49:54.164Z,202.50
2019-06-07T09:50:53.183Z,208.12
2019-06-07T09:51:53.162Z,208.12
2019-06-07T09:52:58.518Z,208.12
2019-06-07T09:53:54.143Z,208.12
2019-06-07T09:55:54.115Z,213.75
2019-06-07T09:56:53.099Z,213.75
2019-06-07T09:57:53.102Z,213.75
2019-06-07T09:58:54.229Z,213.75
2019-06-07T10:00:33.576Z,219.38
2019-06-07T10:00:54.054Z,213.75
2019-06-07T10:01:53.045Z,213.75
2019-06-07T10:02:53.042Z,213.75
2019-06-07T10:03:53.041Z,219.38
2019-06-07T10:04:53.011Z,213.75
2019-06-07T10:05:53.771Z,213.75
2019-06-07T10:06:53.006Z,213.75
2019-06-07T10:08:09.734Z,213.75
2019-06-07T10:10:04.702Z,213.75
2019-06-07T10:10:17.371Z,213.75
2019-06-07T10:10:53.976Z,213.75
2019-06-07T10:11:52.956Z,213.75
2019-06-07T10:12:52.937Z,213.75
2019-06-07T10:13:52.963Z,213.75
2019-06-07T10:14:52.915Z,213.75
2019-06-07T10:15:53.717Z,213.75
2019-06-07T10:16:52.895Z,213.75
2019-06-07T10:17:52.885Z,219.38
2019-06-07T10:18:52.874Z,219.38
2019-06-07T10:19:52.885Z,219.38
2019-06-07T10:20:52.853Z,219.38
2019-06-07T10:21:52.856Z,219.38
2019-06-07T10:22:52.833Z,219.38
2019-06-07T10:23:52.816Z,219.38
2019-06-07T10:24:52.860Z,219.38
2019-06-07T10:25:52.800Z,219.38
2019-06-07T10:26:52.797Z,219.38
2019-06-07T10:27:52.785Z,225.00
2019-06-07T10:28:53.662Z,225.00
2019-06-07T10:29:52.766Z,225.00
2019-06-07T10:31:04.488Z,225.00
2019-06-07T10:31:52.763Z,225.00
2019-06-07T10:32:52.736Z,225.00
2019-06-07T10:33:52.713Z,225.00
2019-06-07T10:34:52.716Z,225.00
2019-06-07T10:35:52.694Z,225.00
2019-06-07T10:36:52.717Z,225.00
2019-06-07T10:37:52.705Z,230.62
2019-06-07T10:38:52.653Z,225.00
2019-06-07T10:39:52.653Z,225.00
2019-06-07T10:40:52.653Z,241.88
2019-06-07T10:41:54.138Z,225.00
2019-06-07T10:42:52.626Z,225.00
2019-06-07T10:43:52.604Z,225.00
2019-06-07T10:44:52.617Z,230.62
2019-06-07T10:45:52.594Z,230.62
2019-06-07T10:46:52.600Z,230.62
2019-06-07T10:47:52.587Z,230.62
2019-06-07T10:48:52.621Z,230.62
2019-06-07T10:49:52.557Z,230.62
2019-06-07T10:50:52.683Z,230.62
2019-06-07T10:51:52.548Z,230.62
2019-06-07T10:52:52.526Z,230.62
2019-06-07T10:53:52.519Z,230.62
2019-06-07T10:54:52.506Z,230.62
2019-06-07T10:55:52.498Z,230.62
2019-06-07T10:56:52.507Z,230.62
2019-06-07T10:57:52.470Z,230.62
2019-06-07T10:58:52.466Z,230.62
2019-06-07T10:59:52.445Z,230.62
2019-06-07T11:00:52.446Z,230.62
2019-06-07T11:02:03.498Z,230.62
2019-06-07T11:02:55.071Z,230.62
2019-06-07T11:03:52.416Z,230.62
2019-06-07T11:04:52.397Z,230.62
2019-06-07T11:05:52.441Z,230.62
2019-06-07T11:06:52.385Z,230.62
2019-06-07T11:07:52.386Z,230.62
2019-06-07T11:08:52.359Z,225.00
2019-06-07T11:10:06.123Z,230.62
2019-06-07T11:10:53.348Z,225.00
2019-06-07T11:11:52.398Z,230.62
2019-06-07T11:12:52.317Z,230.62
2019-06-07T11:13:52.628Z,230.62
2019-06-07T11:14:52.297Z,230.62
2019-06-07T11:15:52.289Z,230.62
2019-06-07T11:16:52.289Z,230.62
2019-06-07T11:17:52.289Z,230.62
2019-06-07T11:18:52.288Z,230.62
2019-06-07T11:19:52.260Z,230.62
2019-06-07T11:20:52.236Z,230.62
2019-06-07T11:21:52.219Z,230.62
2019-06-07T11:22:52.230Z,230.62
2019-06-07T11:23:52.222Z,236.25
2019-06-07T11:24:52.210Z,230.62
2019-06-07T11:25:52.190Z,225.00
2019-06-07T11:26:52.179Z,225.00
2019-06-07T11:27:52.172Z,225.00
2019-06-07T11:28:52.174Z,230.62
2019-06-07T11:29:52.147Z,230.62
2019-06-07T11:30:52.271Z,230.62
2019-06-07T11:31:52.201Z,236.25
2019-06-07T11:33:02.795Z,236.25
2019-06-07T11:33:52.218Z,236.25
2019-06-07T11:34:52.111Z,236.25
2019-06-07T11:35:52.093Z,236.25
2019-06-07T11:36:52.071Z,236.25
2019-06-07T11:37:52.071Z,236.25
2019-06-07T11:38:52.052Z,241.88
2019-06-07T11:39:52.092Z,236.25
2019-06-07T11:40:52.042Z,236.25
2019-06-07T11:41:52.024Z,236.25
2019-06-07T11:42:52.859Z,236.25
2019-06-07T11:43:52.004Z,236.25
2019-06-07T11:44:56.678Z,236.25
2019-06-07T11:45:53.022Z,236.25
2019-06-07T11:46:51.984Z,236.25
2019-06-07T11:47:52.001Z,230.62
2019-06-07T11:48:51.942Z,230.62
2019-06-07T11:49:51.950Z,230.62
2019-06-07T11:50:51.935Z,230.62
2019-06-07T11:51:51.932Z,230.62
2019-06-07T11:52:51.914Z,230.62
2019-06-07T11:53:51.893Z,230.62
2019-06-07T11:54:51.929Z,236.25
2019-06-07T11:55:51.925Z,230.62
2019-06-07T11:56:51.892Z,230.62
2019-06-07T11:57:51.866Z,236.25
2019-06-07T11:58:51.855Z,230.62
2019-06-07T11:59:51.833Z,230.62
2019-06-07T12:00:51.846Z,230.62
2019-06-07T12:01:51.824Z,230.62
2019-06-07T12:02:51.813Z,236.25
2019-06-07T12:04:03.182Z,230.62
2019-06-07T12:04:51.799Z,230.62
2019-06-07T12:05:51.775Z,230.62
2019-06-07T12:06:51.788Z,225.00
2019-06-07T12:07:51.760Z,225.00
2019-06-07T12:08:51.761Z,225.00
2019-06-07T12:09:56.284Z,219.38
2019-06-07T12:10:52.741Z,225.00
2019-06-07T12:11:51.729Z,219.38
2019-06-07T12:12:51.711Z,219.38
2019-06-07T12:13:51.699Z,219.38
2019-06-07T12:14:51.708Z,219.38
2019-06-07T12:15:51.691Z,219.38
2019-06-07T12:16:51.672Z,219.38
2019-06-07T12:17:51.709Z,219.38
2019-06-07T12:18:51.651Z,219.38
2019-06-07T12:19:51.650Z,225.00
2019-06-07T12:20:51.629Z,225.00
2019-06-07T12:21:51.619Z,225.00
2019-06-07T12:22:51.640Z,225.00
2019-06-07T12:23:51.611Z,225.00
2019-06-07T12:24:51.635Z,225.00
2019-06-07T12:25:51.598Z,219.38
2019-06-07T12:26:51.613Z,230.62
2019-06-07T12:27:51.638Z,225.00
2019-06-07T12:28:51.559Z,219.38
2019-06-07T12:29:51.545Z,219.38
2019-06-07T12:30:54.507Z,213.75
2019-06-07T12:31:51.534Z,213.75
2019-06-07T12:32:51.516Z,213.75
2019-06-07T12:33:51.678Z,213.75
2019-06-07T12:35:01.367Z,208.12
2019-06-07T12:35:51.495Z,213.75
2019-06-07T12:36:51.469Z,213.75
2019-06-07T12:37:51.452Z,208.12
2019-06-07T12:38:51.454Z,208.12
2019-06-07T12:39:51.448Z,213.75
2019-06-07T12:40:57.444Z,208.12
2019-06-07T12:41:52.434Z,202.50
2019-06-07T12:42:51.431Z,202.50
2019-06-07T12:43:51.396Z,208.12
2019-06-07T12:44:51.389Z,208.12
2019-06-07T12:45:51.438Z,208.12
2019-06-07T12:46:51.368Z,208.12
2019-06-07T12:47:51.359Z,208.12
2019-06-07T12:48:51.366Z,208.12
2019-06-07T12:49:51.357Z,202.50
2019-06-07T12:50:51.326Z,202.50
2019-06-07T12:51:51.317Z,202.50
2019-06-07T12:52:51.652Z,196.88
2019-06-07T12:53:51.310Z,196.88
2019-06-07T12:54:51.288Z,196.88
2019-06-07T12:55:51.280Z,196.88
2019-06-07T12:56:52.424Z,191.25
2019-06-07T12:57:51.286Z,191.25
2019-06-07T12:58:51.251Z,191.25
2019-06-07T12:59:51.241Z,191.25
2019-06-07T13:00:51.246Z,191.25
2019-06-07T13:01:51.222Z,191.25
2019-06-07T13:02:51.229Z,191.25
2019-06-07T13:03:51.204Z,185.62
2019-06-07T13:04:51.233Z,185.62
2019-06-07T13:06:01.074Z,185.62
2019-06-07T13:06:51.163Z,191.25
2019-06-07T13:07:51.158Z,185.62
2019-06-07T13:08:51.158Z,185.62
2019-06-07T13:09:51.134Z,185.62
2019-06-07T13:10:51.157Z,185.62
2019-06-07T13:11:51.119Z,185.62
2019-06-07T13:12:51.096Z,185.62
2019-06-07T13:13:51.104Z,185.62
2019-06-07T13:14:51.097Z,185.62
2019-06-07T13:15:51.077Z,185.62
2019-06-07T13:16:51.083Z,180.00
2019-06-07T13:17:51.071Z,185.62